sensor_id;sensor_type;location;lat;lon;timestamp;pressure;altitude;pressure_sealevel;temperature;humidity
19023;BME280;35226;48.606;8.858;2023-08-06T00:02:20;95568.66;;;15.02;100.00
19023;BME280;35226;48.606;8.858;2023-08-06T00:04:46;95575.19;;;14.99;100.00
19023;BME280;35226;48.606;8.858;2023-08-06T00:07:11;95589.53;;;14.92;100.00
19023;BME280;35226;48.606;8.858;2023-08-06T00:09:37;95586.56;;;14.95;100.00
19023;BME280;35226;48.606;8.858;2023-08-06T00:12:02;95596.63;;;14.93;100.00
19023;BME280;35226;48.606;8.858;2023-08-06T00:14:28;95589.78;;;14.88;100.00
19023;BME280;35226;48.606;8.858;2023-08-06T00:16:54;95591.50;;;14.86;100.00
19023;BME280;35226;48.606;8.858;2023-08-06T00:19:19;95585.09;;;14.79;100.00
19023;BME280;35226;48.606;8.858;2023-08-06T00:21:44;95583.72;;;14.69;100.00
19023;BME280;35226;48.606;8.858;2023-08-06T00:24:10;95578.16;;;14.69;100.00
19023;BME280;35226;48.606;8.858;2023-08-06T00:26:35;95576.56;;;14.63;100.00
19023;BME280;35226;48.606;8.858;2023-08-06T00:29:01;95578.31;;;14.60;100.00
19023;BME280;35226;48.606;8.858;2023-08-06T00:31:26;95575.53;;;14.60;100.00
19023;BME280;35226;48.606;8.858;2023-08-06T00:33:52;95574.28;;;14.61;100.00
19023;BME280;35226;48.606;8.858;2023-08-06T00:36:17;95568.19;;;14.57;100.00
19023;BME280;35226;48.606;8.858;2023-08-06T00:38:43;95559.38;;;14.59;100.00
19023;BME280;35226;48.606;8.858;2023-08-06T00:41:08;95559.28;;;14.53;100.00
19023;BME280;35226;48.606;8.858;2023-08-06T00:43:34;95556.16;;;14.46;100.00
19023;BME280;35226;48.606;8.858;2023-08-06T00:46:00;95563.75;;;14.45;100.00
19023;BME280;35226;48.606;8.858;2023-08-06T00:48:26;95549.03;;;14.39;100.00
19023;BME280;35226;48.606;8.858;2023-08-06T00:50:52;95549.66;;;14.34;100.00
19023;BME280;35226;48.606;8.858;2023-08-06T00:53:17;95538.75;;;14.30;100.00
19023;BME280;35226;48.606;8.858;2023-08-06T00:55:44;95540.56;;;14.33;100.00
19023;BME280;35226;48.606;8.858;2023-08-06T00:58:11;95543.81;;;14.32;100.00
19023;BME280;35226;48.606;8.858;2023-08-06T01:00:38;95541.00;;;14.26;100.00
19023;BME280;35226;48.606;8.858;2023-08-06T01:03:03;95544.72;;;14.23;100.00
19023;BME280;35226;48.606;8.858;2023-08-06T01:05:29;95550.28;;;14.23;100.00
19023;BME280;35226;48.606;8.858;2023-08-06T01:13:45;95539.88;;;14.18;100.00
19023;BME280;35226;48.606;8.858;2023-08-06T01:16:20;95537.31;;;14.15;100.00
19023;BME280;35226;48.606;8.858;2023-08-06T01:18:49;95529.69;;;14.10;100.00
19023;BME280;35226;48.606;8.858;2023-08-06T01:21:18;95527.84;;;14.06;100.00
19023;BME280;35226;48.606;8.858;2023-08-06T01:23:45;95531.31;;;14.01;100.00
19023;BME280;35226;48.606;8.858;2023-08-06T01:26:24;95526.53;;;14.02;100.00
19023;BME280;35226;48.606;8.858;2023-08-06T01:29:16;95520.16;;;13.96;100.00
19023;BME280;35226;48.606;8.858;2023-08-06T01:31:46;95522.63;;;13.94;100.00
19023;BME280;35226;48.606;8.858;2023-08-06T01:34:17;95529.16;;;13.91;100.00
19023;BME280;35226;48.606;8.858;2023-08-06T01:36:48;95515.47;;;13.87;100.00
19023;BME280;35226;48.606;8.858;2023-08-06T01:39:14;95526.59;;;13.87;100.00
19023;BME280;35226;48.606;8.858;2023-08-06T01:41:39;95526.78;;;13.84;100.00
19023;BME280;35226;48.606;8.858;2023-08-06T01:44:05;95523.25;;;13.83;100.00
19023;BME280;35226;48.606;8.858;2023-08-06T01:46:31;95524.47;;;13.82;100.00
19023;BME280;35226;48.606;8.858;2023-08-06T01:48:56;95530.13;;;13.88;100.00
19023;BME280;35226;48.606;8.858;2023-08-06T01:51:22;95525.72;;;13.81;100.00
19023;BME280;35226;48.606;8.858;2023-08-06T01:53:47;95518.09;;;13.76;100.00
19023;BME280;35226;48.606;8.858;2023-08-06T01:56:13;95524.59;;;13.73;100.00
19023;BME280;35226;48.606;8.858;2023-08-06T01:58:38;95527.69;;;13.75;100.00
19023;BME280;35226;48.606;8.858;2023-08-06T02:01:04;95524.31;;;13.71;100.00
19023;BME280;35226;48.606;8.858;2023-08-06T02:03:29;95518.50;;;13.69;100.00
19023;BME280;35226;48.606;8.858;2023-08-06T02:05:55;95510.38;;;13.65;100.00
19023;BME280;35226;48.606;8.858;2023-08-06T02:08:20;95514.88;;;13.63;100.00
19023;BME280;35226;48.606;8.858;2023-08-06T02:10:46;95517.16;;;13.64;100.00
19023;BME280;35226;48.606;8.858;2023-08-06T02:13:11;95502.75;;;13.60;100.00
19023;BME280;35226;48.606;8.858;2023-08-06T02:15:44;95513.09;;;13.60;100.00
19023;BME280;35226;48.606;8.858;2023-08-06T02:18:10;95510.31;;;13.60;100.00
19023;BME280;35226;48.606;8.858;2023-08-06T02:20:35;95503.00;;;13.62;100.00
19023;BME280;35226;48.606;8.858;2023-08-06T02:23:01;95499.97;;;13.60;100.00
19023;BME280;35226;48.606;8.858;2023-08-06T02:25:26;95495.94;;;13.61;100.00
19023;BME280;35226;48.606;8.858;2023-08-06T02:27:52;95484.81;;;13.61;100.00
19023;BME280;35226;48.606;8.858;2023-08-06T02:30:17;95476.50;;;13.61;100.00
19023;BME280;35226;48.606;8.858;2023-08-06T02:32:43;95466.25;;;13.67;100.00
19023;BME280;35226;48.606;8.858;2023-08-06T02:35:09;95478.31;;;13.64;100.00
19023;BME280;35226;48.606;8.858;2023-08-06T02:37:34;95472.47;;;13.62;100.00
19023;BME280;35226;48.606;8.858;2023-08-06T02:40:00;95477.66;;;13.55;100.00
19023;BME280;35226;48.606;8.858;2023-08-06T02:42:25;95465.13;;;13.59;100.00
19023;BME280;35226;48.606;8.858;2023-08-06T02:44:52;95468.38;;;13.58;100.00
19023;BME280;35226;48.606;8.858;2023-08-06T02:47:20;95459.59;;;13.59;100.00
19023;BME280;35226;48.606;8.858;2023-08-06T02:49:46;95470.88;;;13.56;100.00
19023;BME280;35226;48.606;8.858;2023-08-06T02:52:11;95463.31;;;13.56;100.00
19023;BME280;35226;48.606;8.858;2023-08-06T02:54:37;95461.03;;;13.55;100.00
19023;BME280;35226;48.606;8.858;2023-08-06T02:57:02;95462.06;;;13.57;100.00
19023;BME280;35226;48.606;8.858;2023-08-06T02:59:31;95462.28;;;13.54;100.00
19023;BME280;35226;48.606;8.858;2023-08-06T03:02:05;95460.25;;;13.54;100.00
19023;BME280;35226;48.606;8.858;2023-08-06T03:04:41;95456.16;;;13.50;100.00
19023;BME280;35226;48.606;8.858;2023-08-06T03:07:09;95456.16;;;13.50;100.00
19023;BME280;35226;48.606;8.858;2023-08-06T03:09:43;95446.44;;;13.40;100.00
19023;BME280;35226;48.606;8.858;2023-08-06T03:12:09;95450.25;;;13.42;100.00
19023;BME280;35226;48.606;8.858;2023-08-06T03:14:34;95441.91;;;13.42;100.00
19023;BME280;35226;48.606;8.858;2023-08-06T03:17:01;95437.13;;;13.43;100.00
19023;BME280;35226;48.606;8.858;2023-08-06T03:19:27;95434.34;;;13.43;100.00
19023;BME280;35226;48.606;8.858;2023-08-06T03:21:53;95422.00;;;13.44;100.00
19023;BME280;35226;48.606;8.858;2023-08-06T03:24:20;95441.44;;;13.44;100.00
19023;BME280;35226;48.606;8.858;2023-08-06T03:26:46;95442.50;;;13.46;100.00
19023;BME280;35226;48.606;8.858;2023-08-06T03:29:11;95442.00;;;13.48;100.00
19023;BME280;35226;48.606;8.858;2023-08-06T03:31:37;95432.72;;;13.51;100.00
19023;BME280;35226;48.606;8.858;2023-08-06T03:34:03;95436.94;;;13.46;100.00
19023;BME280;35226;48.606;8.858;2023-08-06T03:36:30;95424.13;;;13.49;100.00
19023;BME280;35226;48.606;8.858;2023-08-06T03:38:56;95433.50;;;13.51;100.00
19023;BME280;35226;48.606;8.858;2023-08-06T03:41:21;95434.75;;;13.50;100.00
19023;BME280;35226;48.606;8.858;2023-08-06T03:43:47;95443.72;;;13.45;100.00
19023;BME280;35226;48.606;8.858;2023-08-06T03:46:19;95437.91;;;13.43;100.00
19023;BME280;35226;48.606;8.858;2023-08-06T03:48:45;95429.72;;;13.54;100.00
19023;BME280;35226;48.606;8.858;2023-08-06T03:51:11;95431.84;;;13.59;100.00
19023;BME280;35226;48.606;8.858;2023-08-06T03:53:38;95427.31;;;13.62;100.00
19023;BME280;35226;48.606;8.858;2023-08-06T03:56:04;95430.72;;;13.51;100.00
19023;BME280;35226;48.606;8.858;2023-08-06T03:58:31;95427.59;;;13.64;100.00
19023;BME280;35226;48.606;8.858;2023-08-06T04:01:00;95425.88;;;13.66;100.00
19023;BME280;35226;48.606;8.858;2023-08-06T04:03:30;95433.84;;;13.59;100.00
19023;BME280;35226;48.606;8.858;2023-08-06T04:05:55;95441.06;;;13.71;100.00
19023;BME280;35226;48.606;8.858;2023-08-06T04:08:21;95434.34;;;13.78;100.00
19023;BME280;35226;48.606;8.858;2023-08-06T04:10:51;95441.41;;;13.79;100.00
19023;BME280;35226;48.606;8.858;2023-08-06T04:13:16;95435.38;;;13.80;100.00
19023;BME280;35226;48.606;8.858;2023-08-06T04:15:42;95442.06;;;13.88;100.00
19023;BME280;35226;48.606;8.858;2023-08-06T04:18:07;95447.31;;;13.86;100.00
19023;BME280;35226;48.606;8.858;2023-08-06T04:20:33;95456.31;;;13.81;100.00
19023;BME280;35226;48.606;8.858;2023-08-06T04:22:58;95451.00;;;13.78;100.00
19023;BME280;35226;48.606;8.858;2023-08-06T04:25:23;95445.50;;;13.63;100.00
19023;BME280;35226;48.606;8.858;2023-08-06T04:27:50;95450.38;;;13.68;100.00
19023;BME280;35226;48.606;8.858;2023-08-06T04:30:15;95449.16;;;13.54;100.00
19023;BME280;35226;48.606;8.858;2023-08-06T04:32:41;95455.69;;;13.51;100.00
19023;BME280;35226;48.606;8.858;2023-08-06T04:35:07;95450.28;;;13.62;100.00
19023;BME280;35226;48.606;8.858;2023-08-06T04:37:34;95454.22;;;13.56;100.00
19023;BME280;35226;48.606;8.858;2023-08-06T04:40:00;95455.47;;;13.55;100.00
19023;BME280;35226;48.606;8.858;2023-08-06T04:42:25;95457.47;;;13.54;100.00
19023;BME280;35226;48.606;8.858;2023-08-06T04:44:51;95459.78;;;13.56;100.00
19023;BME280;35226;48.606;8.858;2023-08-06T04:47:16;95460.25;;;13.54;100.00
19023;BME280;35226;48.606;8.858;2023-08-06T04:49:42;95461.44;;;13.48;100.00
19023;BME280;35226;48.606;8.858;2023-08-06T04:52:07;95461.97;;;13.52;100.00
19023;BME280;35226;48.606;8.858;2023-08-06T04:54:33;95459.59;;;13.59;100.00
19023;BME280;35226;48.606;8.858;2023-08-06T04:56:59;95444.47;;;13.60;100.00
19023;BME280;35226;48.606;8.858;2023-08-06T04:59:24;95462.91;;;13.63;100.00
19023;BME280;35226;48.606;8.858;2023-08-06T05:01:50;95452.84;;;13.66;100.00
19023;BME280;35226;48.606;8.858;2023-08-06T05:04:15;95458.00;;;13.73;100.00
19023;BME280;35226;48.606;8.858;2023-08-06T05:06:40;95458.28;;;13.75;100.00
19023;BME280;35226;48.606;8.858;2023-08-06T05:09:06;95459.94;;;13.87;100.00
19023;BME280;35226;48.606;8.858;2023-08-06T05:11:32;95459.88;;;13.82;100.00
19023;BME280;35226;48.606;8.858;2023-08-06T05:13:57;95449.47;;;13.97;100.00
19023;BME280;35226;48.606;8.858;2023-08-06T05:16:23;95445.97;;;14.02;100.00
19023;BME280;35226;48.606;8.858;2023-08-06T05:18:49;95440.56;;;14.13;100.00
19023;BME280;35226;48.606;8.858;2023-08-06T05:21:14;95448.41;;;14.15;100.00
19023;BME280;35226;48.606;8.858;2023-08-06T05:23:42;95441.41;;;14.19;100.00
19023;BME280;35226;48.606;8.858;2023-08-06T05:26:07;95449.50;;;14.23;100.00
19023;BME280;35226;48.606;8.858;2023-08-06T05:28:33;95448.06;;;14.27;100.00
19023;BME280;35226;48.606;8.858;2023-08-06T05:30:58;95454.53;;;14.19;100.00
19023;BME280;35226;48.606;8.858;2023-08-06T05:33:24;95455.97;;;14.34;100.00
19023;BME280;35226;48.606;8.858;2023-08-06T05:35:49;95460.75;;;14.34;100.00
19023;BME280;35226;48.606;8.858;2023-08-06T05:38:16;95463.13;;;14.41;100.00
19023;BME280;35226;48.606;8.858;2023-08-06T05:40:42;95467.22;;;14.46;100.00
19023;BME280;35226;48.606;8.858;2023-08-06T05:43:08;95473.75;;;14.22;100.00
19023;BME280;35226;48.606;8.858;2023-08-06T05:45:33;95477.63;;;14.30;100.00
19023;BME280;35226;48.606;8.858;2023-08-06T05:47:59;95475.13;;;14.32;100.00
19023;BME280;35226;48.606;8.858;2023-08-06T05:50:24;95476.47;;;14.37;100.00
19023;BME280;35226;48.606;8.858;2023-08-06T05:52:50;95469.53;;;14.27;100.00
19023;BME280;35226;48.606;8.858;2023-08-06T05:55:17;95469.94;;;14.40;100.00
19023;BME280;35226;48.606;8.858;2023-08-06T05:57:42;95472.44;;;14.38;100.00
19023;BME280;35226;48.606;8.858;2023-08-06T06:00:08;95470.78;;;14.46;100.00
19023;BME280;35226;48.606;8.858;2023-08-06T06:02:42;95472.31;;;14.47;100.00
19023;BME280;35226;48.606;8.858;2023-08-06T06:05:08;95470.63;;;14.55;100.00
19023;BME280;35226;48.606;8.858;2023-08-06T06:07:33;95475.69;;;14.57;100.00
19023;BME280;35226;48.606;8.858;2023-08-06T06:09:59;95475.47;;;14.60;100.00
19023;BME280;35226;48.606;8.858;2023-08-06T06:12:24;95471.22;;;14.65;100.00
19023;BME280;35226;48.606;8.858;2023-08-06T06:14:51;95474.56;;;14.69;100.00
19023;BME280;35226;48.606;8.858;2023-08-06T06:17:17;95472.50;;;14.69;100.00
19023;BME280;35226;48.606;8.858;2023-08-06T06:19:42;95471.81;;;14.74;100.00
19023;BME280;35226;48.606;8.858;2023-08-06T06:22:07;95482.50;;;14.81;100.00
19023;BME280;35226;48.606;8.858;2023-08-06T06:24:33;95485.94;;;14.71;100.00
19023;BME280;35226;48.606;8.858;2023-08-06T06:26:59;95488.00;;;14.76;100.00
19023;BME280;35226;48.606;8.858;2023-08-06T06:29:24;95486.41;;;14.69;100.00
19023;BME280;35226;48.606;8.858;2023-08-06T06:31:50;95497.00;;;14.65;100.00
19023;BME280;35226;48.606;8.858;2023-08-06T06:34:15;95500.47;;;14.60;100.00
19023;BME280;35226;48.606;8.858;2023-08-06T06:36:41;95500.88;;;14.48;100.00
19023;BME280;35226;48.606;8.858;2023-08-06T06:39:06;95507.25;;;14.54;100.00
19023;BME280;35226;48.606;8.858;2023-08-06T06:41:33;95508.56;;;14.38;100.00
19023;BME280;35226;48.606;8.858;2023-08-06T06:44:05;95499.34;;;14.47;100.00
19023;BME280;35226;48.606;8.858;2023-08-06T06:46:31;95513.34;;;14.37;100.00
19023;BME280;35226;48.606;8.858;2023-08-06T06:48:56;95507.72;;;14.52;100.00
19023;BME280;35226;48.606;8.858;2023-08-06T06:51:22;95515.09;;;14.55;100.00
19023;BME280;35226;48.606;8.858;2023-08-06T06:53:47;95517.53;;;14.27;100.00
19023;BME280;35226;48.606;8.858;2023-08-06T06:56:13;95515.16;;;14.40;100.00
19023;BME280;35226;48.606;8.858;2023-08-06T06:58:40;95519.06;;;14.28;100.00
19023;BME280;35226;48.606;8.858;2023-08-06T07:01:07;95519.09;;;14.14;100.00
19023;BME280;35226;48.606;8.858;2023-08-06T07:03:32;95512.59;;;14.37;100.00
19023;BME280;35226;48.606;8.858;2023-08-06T07:05:58;95510.88;;;14.39;100.00
19023;BME280;35226;48.606;8.858;2023-08-06T07:08:26;95507.03;;;14.37;100.00
19023;BME280;35226;48.606;8.858;2023-08-06T07:11:00;95516.97;;;14.43;100.00
19023;BME280;35226;48.606;8.858;2023-08-06T07:13:26;95517.25;;;14.46;100.00
19023;BME280;35226;48.606;8.858;2023-08-06T07:15:52;95522.31;;;14.27;100.00
19023;BME280;35226;48.606;8.858;2023-08-06T07:18:17;95513.22;;;14.26;100.00
19023;BME280;35226;48.606;8.858;2023-08-06T07:20:48;95518.00;;;14.26;100.00
19023;BME280;35226;48.606;8.858;2023-08-06T07:23:14;95527.31;;;14.23;100.00
19023;BME280;35226;48.606;8.858;2023-08-06T07:25:39;95525.38;;;14.29;100.00
19023;BME280;35226;48.606;8.858;2023-08-06T07:28:04;95528.00;;;14.38;100.00
19023;BME280;35226;48.606;8.858;2023-08-06T07:30:30;95534.63;;;14.40;100.00
19023;BME280;35226;48.606;8.858;2023-08-06T07:32:57;95530.59;;;14.41;100.00
19023;BME280;35226;48.606;8.858;2023-08-06T07:35:22;95533.56;;;14.38;100.00
19023;BME280;35226;48.606;8.858;2023-08-06T07:37:48;95547.94;;;14.36;100.00
19023;BME280;35226;48.606;8.858;2023-08-06T07:40:13;95544.06;;;14.28;100.00
19023;BME280;35226;48.606;8.858;2023-08-06T07:42:39;95540.84;;;14.35;100.00
19023;BME280;35226;48.606;8.858;2023-08-06T07:45:05;95532.81;;;14.37;100.00
19023;BME280;35226;48.606;8.858;2023-08-06T07:47:30;95539.78;;;14.48;100.00
19023;BME280;35226;48.606;8.858;2023-08-06T07:49:56;95535.84;;;14.60;100.00
19023;BME280;35226;48.606;8.858;2023-08-06T07:52:21;95531.06;;;14.60;100.00
19023;BME280;35226;48.606;8.858;2023-08-06T07:54:47;95532.66;;;14.67;100.00
19023;BME280;35226;48.606;8.858;2023-08-06T07:57:12;95533.19;;;14.71;100.00
19023;BME280;35226;48.606;8.858;2023-08-06T07:59:39;95540.63;;;14.59;100.00
19023;BME280;35226;48.606;8.858;2023-08-06T08:02:05;95549.06;;;14.65;100.00
19023;BME280;35226;48.606;8.858;2023-08-06T08:04:30;95545.72;;;14.61;100.00
19023;BME280;35226;48.606;8.858;2023-08-06T08:06:56;95554.13;;;14.66;100.00
19023;BME280;35226;48.606;8.858;2023-08-06T08:09:21;95546.47;;;14.61;100.00
19023;BME280;35226;48.606;8.858;2023-08-06T08:11:47;95549.22;;;14.56;100.00
19023;BME280;35226;48.606;8.858;2023-08-06T08:14:12;95545.22;;;14.62;100.00
19023;BME280;35226;48.606;8.858;2023-08-06T08:16:38;95551.34;;;14.66;100.00
19023;BME280;35226;48.606;8.858;2023-08-06T08:19:03;95554.53;;;14.59;100.00
19023;BME280;35226;48.606;8.858;2023-08-06T08:21:29;95541.06;;;14.72;100.00
19023;BME280;35226;48.606;8.858;2023-08-06T08:23:55;95535.50;;;14.72;100.00
19023;BME280;35226;48.606;8.858;2023-08-06T08:26:20;95541.19;;;14.63;100.00
19023;BME280;35226;48.606;8.858;2023-08-06T08:28:46;95545.78;;;14.66;100.00
19023;BME280;35226;48.606;8.858;2023-08-06T08:31:11;95546.06;;;14.68;100.00
19023;BME280;35226;48.606;8.858;2023-08-06T08:33:40;95557.19;;;14.68;100.00
19023;BME280;35226;48.606;8.858;2023-08-06T08:36:05;95556.00;;;14.75;100.00
19023;BME280;35226;48.606;8.858;2023-08-06T08:38:31;95552.19;;;14.52;100.00
19023;BME280;35226;48.606;8.858;2023-08-06T08:40:56;95551.06;;;14.64;100.00
19023;BME280;35226;48.606;8.858;2023-08-06T08:43:23;95563.16;;;14.61;100.00
19023;BME280;35226;48.606;8.858;2023-08-06T08:45:52;95562.84;;;14.79;100.00
19023;BME280;35226;48.606;8.858;2023-08-06T08:48:20;95565.38;;;14.77;100.00
19023;BME280;35226;48.606;8.858;2023-08-06T08:50:48;95565.88;;;14.76;100.00
19023;BME280;35226;48.606;8.858;2023-08-06T08:53:15;95564.06;;;14.73;100.00
19023;BME280;35226;48.606;8.858;2023-08-06T08:55:43;95564.94;;;14.85;100.00
19023;BME280;35226;48.606;8.858;2023-08-06T08:58:10;95559.06;;;15.03;100.00
19023;BME280;35226;48.606;8.858;2023-08-06T09:00:36;95567.13;;;15.01;100.00
19023;BME280;35226;48.606;8.858;2023-08-06T09:03:02;95563.81;;;15.23;100.00
19023;BME280;35226;48.606;8.858;2023-08-06T09:05:30;95561.50;;;15.21;100.00
19023;BME280;35226;48.606;8.858;2023-08-06T09:08:05;95559.44;;;15.42;100.00
19023;BME280;35226;48.606;8.858;2023-08-06T09:10:30;95562.53;;;15.49;100.00
19023;BME280;35226;48.606;8.858;2023-08-06T09:12:57;95557.59;;;15.33;100.00
19023;BME280;35226;48.606;8.858;2023-08-06T09:15:26;95565.16;;;15.59;100.00
19023;BME280;35226;48.606;8.858;2023-08-06T09:17:53;95575.59;;;15.64;100.00
19023;BME280;35226;48.606;8.858;2023-08-06T09:20:19;95563.47;;;15.41;100.00
19023;BME280;35226;48.606;8.858;2023-08-06T09:22:44;95567.81;;;15.47;100.00
19023;BME280;35226;48.606;8.858;2023-08-06T09:25:11;95568.00;;;15.38;100.00
19023;BME280;35226;48.606;8.858;2023-08-06T09:27:39;95571.72;;;15.30;100.00
19023;BME280;35226;48.606;8.858;2023-08-06T09:30:06;95575.75;;;15.29;100.00
19023;BME280;35226;48.606;8.858;2023-08-06T09:32:48;95577.34;;;15.35;100.00
19023;BME280;35226;48.606;8.858;2023-08-06T09:35:17;95568.50;;;15.37;100.00
19023;BME280;35226;48.606;8.858;2023-08-06T09:37:43;95569.75;;;15.36;100.00
19023;BME280;35226;48.606;8.858;2023-08-06T09:40:29;95574.19;;;15.22;100.00
19023;BME280;35226;48.606;8.858;2023-08-06T09:42:56;95572.16;;;15.23;100.00
19023;BME280;35226;48.606;8.858;2023-08-06T09:45:22;95571.28;;;15.11;100.00
19023;BME280;35226;48.606;8.858;2023-08-06T09:47:55;95566.66;;;15.02;100.00
19023;BME280;35226;48.606;8.858;2023-08-06T09:50:21;95573.63;;;15.18;100.00
19023;BME280;35226;48.606;8.858;2023-08-06T09:52:47;95574.47;;;14.98;100.00
19023;BME280;35226;48.606;8.858;2023-08-06T09:55:14;95581.19;;;14.92;100.00
19023;BME280;35226;48.606;8.858;2023-08-06T09:57:41;95580.03;;;14.98;100.00
19023;BME280;35226;48.606;8.858;2023-08-06T10:00:10;95585.84;;;15.00;100.00
19023;BME280;35226;48.606;8.858;2023-08-06T10:02:39;95587.34;;;14.75;100.00
19023;BME280;35226;48.606;8.858;2023-08-06T10:05:06;95596.38;;;14.70;100.00
19023;BME280;35226;48.606;8.858;2023-08-06T10:07:32;95601.75;;;14.74;100.00
19023;BME280;35226;48.606;8.858;2023-08-06T10:09:58;95604.84;;;14.81;100.00
19023;BME280;35226;48.606;8.858;2023-08-06T10:12:24;95603.00;;;14.99;100.00
19023;BME280;35226;48.606;8.858;2023-08-06T10:14:53;95614.13;;;14.99;100.00
19023;BME280;35226;48.606;8.858;2023-08-06T10:17:21;95617.53;;;15.08;100.00
19023;BME280;35226;48.606;8.858;2023-08-06T10:19:48;95619.00;;;15.04;100.00
19023;BME280;35226;48.606;8.858;2023-08-06T10:22:15;95620.53;;;15.05;100.00
19023;BME280;35226;48.606;8.858;2023-08-06T10:25:01;95614.38;;;14.95;100.00
19023;BME280;35226;48.606;8.858;2023-08-06T10:27:41;95622.88;;;14.86;100.00
19023;BME280;35226;48.606;8.858;2023-08-06T10:32:47;95615.69;;;14.79;100.00
19023;BME280;35226;48.606;8.858;2023-08-06T10:35:35;95629.41;;;14.83;100.00
19023;BME280;35226;48.606;8.858;2023-08-06T10:38:21;95631.84;;;14.75;100.00
19023;BME280;35226;48.606;8.858;2023-08-06T10:43:35;95630.16;;;15.04;100.00
19023;BME280;35226;48.606;8.858;2023-08-06T10:46:09;95628.06;;;14.99;100.00
19023;BME280;35226;48.606;8.858;2023-08-06T10:48:39;95639.25;;;15.04;100.00
19023;BME280;35226;48.606;8.858;2023-08-06T10:51:13;95650.88;;;14.82;100.00
19023;BME280;35226;48.606;8.858;2023-08-06T10:53:43;95638.94;;;14.97;100.00
19023;BME280;35226;48.606;8.858;2023-08-06T10:56:17;95641.91;;;14.93;100.00
19023;BME280;35226;48.606;8.858;2023-08-06T10:58:44;95654.22;;;14.87;100.00
19023;BME280;35226;48.606;8.858;2023-08-06T11:01:11;95649.16;;;14.85;100.00
19023;BME280;35226;48.606;8.858;2023-08-06T11:03:37;95652.22;;;14.87;100.00
19023;BME280;35226;48.606;8.858;2023-08-06T11:06:03;95657.63;;;14.76;100.00
19023;BME280;35226;48.606;8.858;2023-08-06T11:08:34;95660.75;;;14.84;100.00
19023;BME280;35226;48.606;8.858;2023-08-06T11:11:13;95669.16;;;14.89;100.00
19023;BME280;35226;48.606;8.858;2023-08-06T11:13:43;95668.00;;;14.75;100.00
19023;BME280;35226;48.606;8.858;2023-08-06T11:16:12;95672.44;;;14.67;100.00
19023;BME280;35226;48.606;8.858;2023-08-06T11:18:37;95668.19;;;14.72;100.00
19023;BME280;35226;48.606;8.858;2023-08-06T11:21:03;95672.59;;;14.78;100.00
19023;BME280;35226;48.606;8.858;2023-08-06T11:23:29;95681.81;;;14.70;100.00
19023;BME280;35226;48.606;8.858;2023-08-06T11:25:56;95671.38;;;14.65;100.00
19023;BME280;35226;48.606;8.858;2023-08-06T11:28:22;95685.28;;;14.65;100.00
19023;BME280;35226;48.606;8.858;2023-08-06T11:30:48;95676.94;;;14.65;100.00
19023;BME280;35226;48.606;8.858;2023-08-06T11:33:14;95674.38;;;14.61;100.00
19023;BME280;35226;48.606;8.858;2023-08-06T11:35:40;95671.81;;;14.78;100.00
19023;BME280;35226;48.606;8.858;2023-08-06T11:38:06;95677.91;;;14.82;100.00
19023;BME280;35226;48.606;8.858;2023-08-06T11:40:32;95680.69;;;14.82;100.00
19023;BME280;35226;48.606;8.858;2023-08-06T11:42:58;95672.50;;;14.73;100.00
19023;BME280;35226;48.606;8.858;2023-08-06T11:45:24;95666.66;;;14.71;100.00
19023;BME280;35226;48.606;8.858;2023-08-06T11:47:51;95663.34;;;14.67;100.00
19023;BME280;35226;48.606;8.858;2023-08-06T11:50:26;95665.69;;;14.74;100.00
19023;BME280;35226;48.606;8.858;2023-08-06T11:52:56;95667.09;;;14.84;100.00
19023;BME280;35226;48.606;8.858;2023-08-06T11:55:23;95684.59;;;14.70;100.00
19023;BME280;35226;48.606;8.858;2023-08-06T11:57:49;95685.84;;;14.69;100.00
19023;BME280;35226;48.606;8.858;2023-08-06T12:00:14;95704.03;;;14.70;100.00
19023;BME280;35226;48.606;8.858;2023-08-06T12:02:44;95699.09;;;14.59;100.00
19023;BME280;35226;48.606;8.858;2023-08-06T12:05:14;95702.56;;;14.54;100.00
19023;BME280;35226;48.606;8.858;2023-08-06T12:07:45;95709.72;;;14.61;100.00
19023;BME280;35226;48.606;8.858;2023-08-06T12:10:12;95710.50;;;14.61;100.00
19023;BME280;35226;48.606;8.858;2023-08-06T12:12:38;95714.53;;;14.60;100.00
19023;BME280;35226;48.606;8.858;2023-08-06T12:15:05;95711.78;;;14.31;100.00
19023;BME280;35226;48.606;8.858;2023-08-06T12:17:31;95714.78;;;14.27;100.00
19023;BME280;35226;48.606;8.858;2023-08-06T12:19:57;95719.25;;;14.54;100.00
19023;BME280;35226;48.606;8.858;2023-08-06T12:22:22;95719.75;;;14.38;100.00
19023;BME280;35226;48.606;8.858;2023-08-06T12:24:48;95715.75;;;14.39;100.00
19023;BME280;35226;48.606;8.858;2023-08-06T12:27:14;95715.44;;;14.37;100.00
19023;BME280;35226;48.606;8.858;2023-08-06T12:29:44;95722.94;;;14.46;100.00
19023;BME280;35226;48.606;8.858;2023-08-06T12:32:11;95726.75;;;14.48;100.00
19023;BME280;35226;48.606;8.858;2023-08-06T12:34:41;95725.88;;;14.57;100.00
19023;BME280;35226;48.606;8.858;2023-08-06T12:37:08;95728.28;;;14.49;100.00
19023;BME280;35226;48.606;8.858;2023-08-06T12:39:34;95728.84;;;14.53;100.00
19023;BME280;35226;48.606;8.858;2023-08-06T12:42:04;95740.72;;;14.54;100.00
19023;BME280;35226;48.606;8.858;2023-08-06T12:44:31;95734.50;;;14.59;100.00
19023;BME280;35226;48.606;8.858;2023-08-06T12:46:56;95733.78;;;14.64;100.00
19023;BME280;35226;48.606;8.858;2023-08-06T12:49:22;95739.94;;;14.68;100.00
19023;BME280;35226;48.606;8.858;2023-08-06T12:51:52;95733.47;;;14.76;100.00
19023;BME280;35226;48.606;8.858;2023-08-06T12:54:19;95726.13;;;15.14;100.00
19023;BME280;35226;48.606;8.858;2023-08-06T12:56:45;95719.28;;;15.56;100.00
19023;BME280;35226;48.606;8.858;2023-08-06T12:59:11;95711.63;;;16.34;100.00
19023;BME280;35226;48.606;8.858;2023-08-06T13:01:37;95711.88;;;16.67;100.00